首页
METAR-TAF:

METAR-TAF

机场 :

Ozark, 阿拉巴马州, 美国

纬度: 31-17N, 经度: 085-43W, 海拔: 91米

当前天气观测

该预报发布于51分钟前的15:56 UTC
风速4节,风向南转西南
温度 30°C
湿度 70%
气压 1019 hPa
能見度: 16.1公里
散云层高于2400英尺
散云层高于18000英尺

METAR: KOZR 201556Z AUTO 20004KT 10SM SCT024 SCT180 30/24 A3010 RMK AO2 SLP192 T03020238

时间: 11:47 (16:47 UTC)

预报

该预报发布于47分钟前的16:00 UTC
预报有效从20日的 16点(UTC)到 21日的 22点(UTC)
风速6节,风向
能见度10公里或以上
少量云层高于1000英尺
散云层高于4500英尺, 积雨云.
附近有雷暴
短暂存在
从 20日的 18点(UTC)到 20日的 21点(UTC)
风速15节,风向多变,有时为25节阵风
能見度: 6000
多云层高于3000英尺, 积雨云.
雷暴, 小雨
成为
从 21日的 00点(UTC)到 21日的 01点(UTC)
风速6节,风向南转西南
能见度10公里或以上
散云层高于3000英尺
成为
从 21日的 08点(UTC)到 21日的 09点(UTC)
风速6节,风向多变
能见度10公里或以上
少量云层高于1500英尺
散云层高于2000英尺
成为
从 21日的 14点(UTC)到 21日的 15点(UTC)
风速6节,风向东转东南
能见度10公里或以上
散云层高于2500英尺
成为
从 21日的 18点(UTC)到 21日的 19点(UTC)
风速6节,风向东南
能见度10公里或以上
多云层高于2500英尺, 积雨云.
附近有雷暴

TAF: KOZR 201600Z 2016/2122 17006KT 9999 VCTS FEW010 SCT045CB QNH3004INS TEMPO 2018/2021 VRB15G25KT 6000 -TSRA BKN030CB BECMG 2100/2101 21006KT 9999 NSW SCT030 QNH3003INS BECMG 2108/2109 VRB06KT 9999 FEW015 SCT020 QNH3008INS BECMG 2114/2115 11006KT 9999 SCT025 QNH3006INS BECMG 2118/2119 14006KT 9999 VCTS BKN025CB QNH3006INS TX33/2021Z TN22/2111Z

超过4000个机场的气象观测和天气预报(METAR&TAF报告)。

可查询的气象台以黄色和红色小点在地图上表示。

将鼠标移到小点上方,可查看气象台名称。

然后点击查看天气观测和预报。

如需切换地图:点击带黑十字的绿色按钮放大地图;点击带横线的绿色按钮缩小地图;或者点击绿色箭头查看邻近地区的地图。


METAR-TAF: